Time;durP1;ratioP1;P1;durP2;ratioP2;P2;SDS_P1;SDS_P2;PMS_P1;PMS_P2;Temp;Humidity;BMP_temperature;BMP_pressure;BME280_temperature;BME280_humidity;BME280_pressure;Samples;Min_cycle;Max_cycle;Signal;HPM_P1;HPM_P2
2023/04/25 00:01:37;;;;;;;0.00;0.00;;;;;;;12.25;100.00;96822.91;5088660;27;20036;-83
2023/04/25 00:04:05;;;;;;;0.60;0.30;;;;;;;12.43;100.00;96847.38;5099207;28;20044;-83
2023/04/25 00:06:32;;;;;;;0.30;0.30;;;;;;;12.27;100.00;96794.16;5099418;27;20118;-83
2023/04/25 00:08:57;;;;;;;0.32;0.20;;;;;;;12.36;100.00;96745.16;5099431;27;20106;-83
2023/04/25 00:11:23;;;;;;;0.32;0.20;;;;;;;12.26;100.00;96682.50;5098877;27;20160;-83
2023/04/25 00:13:50;;;;;;;0.20;0.15;;;;;;;12.37;100.00;96682.47;5111755;27;20408;-83
2023/04/25 00:16:16;;;;;;;0.20;0.20;;;;;;;12.37;100.00;96673.56;5099175;27;20019;-82
2023/04/25 00:18:42;;;;;;;0.30;0.10;;;;;;;12.37;100.00;96681.59;5098894;27;20030;-83
2023/04/25 00:21:08;;;;;;;1.08;0.30;;;;;;;12.26;100.00;96647.66;5099327;27;20557;-83
2023/04/25 00:23:36;;;;;;;0.30;0.25;;;;;;;12.49;100.00;96662.66;5099225;27;20114;-84
2023/04/25 00:26:02;;;;;;;0.00;0.00;;;;;;;12.52;100.00;96653.50;5099304;27;20046;-82
2023/04/25 00:28:28;;;;;;;0.22;0.22;;;;;;;12.36;100.00;96616.41;5092070;27;20041;-82
2023/04/25 00:30:53;;;;;;;0.43;0.10;;;;;;;12.44;100.00;96635.38;5095941;27;20031;-83
2023/04/25 00:33:19;;;;;;;0.60;0.60;;;;;;;12.70;100.00;96638.56;5084180;27;20025;-82
2023/04/25 00:35:45;;;;;;;0.52;0.43;;;;;;;12.64;100.00;96604.22;5098702;27;20027;-82
2023/04/25 00:38:50;;;;;;;0.20;0.20;;;;;;;12.43;100.00;96577.34;5081587;28;20037;-83
2023/04/25 00:41:16;;;;;;;0.00;0.00;;;;;;;12.67;100.00;96587.00;5113026;27;20046;-82
2023/04/25 00:43:42;;;;;;;0.00;0.00;;;;;;;12.64;100.00;96573.84;5115942;27;20019;-82
2023/04/25 00:46:07;;;;;;;0.10;0.10;;;;;;;12.54;100.00;96532.69;5098989;27;20047;-81
2023/04/25 00:48:33;;;;;;;0.08;0.08;;;;;;;12.56;100.00;96520.84;5098607;27;20038;-82
2023/04/25 00:50:59;;;;;;;0.50;0.40;;;;;;;12.63;100.00;96510.44;5098347;27;20107;-82
2023/04/25 00:53:28;;;;;;;0.43;0.40;;;;;;;12.76;100.00;96516.44;5082038;27;20071;-81
2023/04/25 00:55:55;;;;;;;0.40;0.30;;;;;;;12.77;100.00;96486.78;5098450;27;20029;-82
2023/04/25 00:58:21;;;;;;;0.00;0.00;;;;;;;12.72;100.00;96472.06;5098550;27;20473;-83
2023/04/25 01:00:48;;;;;;;0.25;0.22;;;;;;;12.84;100.00;96482.56;5083602;27;20031;-82
2023/04/25 01:03:16;;;;;;;0.22;0.17;;;;;;;12.77;100.00;96464.44;5082748;27;20100;-83
2023/04/25 01:05:42;;;;;;;1.65;0.63;;;;;;;12.78;100.00;96455.44;5090114;27;20034;-82
2023/04/25 01:08:07;;;;;;;0.10;0.10;;;;;;;12.89;100.00;96466.06;5106577;27;20027;-82
2023/04/25 01:10:33;;;;;;;1.05;0.57;;;;;;;12.90;100.00;96467.75;5087242;27;20114;-82
2023/04/25 01:12:58;;;;;;;0.10;0.10;;;;;;;13.00;100.00;96460.59;5084342;27;20475;-82
2023/04/25 01:15:49;;;;;;;0.00;0.00;;;;;;;13.03;100.00;96468.38;5112949;27;20023;-84
2023/04/25 01:18:14;;;;;;;0.17;0.08;;;;;;;13.03;100.00;96454.94;5088197;27;20019;-82
2023/04/25 01:20:41;;;;;;;0.03;0.03;;;;;;;12.77;100.00;96424.19;5083728;28;20115;-82
2023/04/25 01:23:07;;;;;;;0.40;0.20;;;;;;;12.92;100.00;96457.75;5083466;27;20031;-83
2023/04/25 01:25:33;;;;;;;0.20;0.20;;;;;;;12.94;100.00;96455.78;5080613;28;20031;-83
2023/04/25 01:27:59;;;;;;;0.32;0.32;;;;;;;12.93;100.00;96467.47;5078264;28;20061;-83
2023/04/25 01:30:26;;;;;;;0.20;0.20;;;;;;;13.04;100.00;96470.91;5090083;27;20053;-83
2023/04/25 01:32:54;;;;;;;0.00;0.00;;;;;;;13.07;100.00;96478.69;5097856;27;20510;-83
2023/04/25 01:35:19;;;;;;;0.75;0.47;;;;;;;13.07;100.00;96468.97;5099009;28;20026;-82
2023/04/25 01:37:45;;;;;;;0.30;0.30;;;;;;;13.13;100.00;96482.72;5077195;28;20024;-83
2023/04/25 01:40:11;;;;;;;0.20;0.20;;;;;;;13.13;100.00;96477.34;5083085;27;20023;-83
2023/04/25 01:42:39;;;;;;;0.93;0.35;;;;;;;13.03;100.00;96469.22;5093301;27;20493;-82
2023/04/25 01:45:06;;;;;;;0.40;0.40;;;;;;;12.94;100.00;96445.03;5096929;27;20045;-82
2023/04/25 01:47:32;;;;;;;0.20;0.20;;;;;;;13.10;100.00;96460.66;5097014;27;20579;-82
2023/04/25 01:49:57;;;;;;;0.68;0.20;;;;;;;13.11;100.00;96459.66;5089612;28;20067;-82
2023/04/25 01:52:23;;;;;;;0.22;0.20;;;;;;;12.98;100.00;96428.50;5077066;28;20043;-83
2023/04/25 01:54:50;;;;;;;0.00;0.00;;;;;;;13.12;100.00;96447.94;5082190;28;20031;-83
2023/04/25 01:57:15;;;;;;;0.20;0.20;;;;;;;13.14;100.00;96445.97;5098447;28;20028;-83
2023/04/25 01:59:42;;;;;;;1.00;0.50;;;;;;;12.98;100.00;96431.19;5103103;27;20102;-83
2023/04/25 02:02:07;;;;;;;0.75;0.57;;;;;;;12.83;100.00;96412.91;5097312;27;20083;-83
2023/04/25 02:04:33;;;;;;;0.22;0.22;;;;;;;12.95;100.00;96442.19;5080646;28;20027;-82
2023/04/25 02:06:59;;;;;;;0.57;0.35;;;;;;;12.91;100.00;96442.63;5092385;28;20015;-81
2023/04/25 02:09:24;;;;;;;0.03;0.03;;;;;;;12.71;100.00;96414.88;5092815;27;20110;-83
2023/04/25 02:11:50;;;;;;;0.20;0.20;;;;;;;12.82;100.00;96440.75;5085113;28;20118;-82
2023/04/25 02:14:16;;;;;;;1.25;0.52;;;;;;;12.78;100.00;96423.22;5076737;28;20506;-83
2023/04/25 02:16:43;;;;;;;0.00;0.00;;;;;;;12.86;100.00;96431.44;5081830;28;20451;-82
2023/04/25 02:19:10;;;;;;;0.20;0.10;;;;;;;12.80;100.00;96415.88;5087709;27;20059;-83
2023/04/25 02:21:35;;;;;;;1.75;0.57;;;;;;;12.72;100.00;96429.13;5096723;27;20033;-84
2023/04/25 02:24:01;;;;;;;0.30;0.22;;;;;;;12.73;100.00;96433.53;5088484;27;20050;-83
2023/04/25 02:26:27;;;;;;;0.77;0.73;;;;;;;12.69;100.00;96446.34;5113665;27;20045;-83
2023/04/25 02:28:52;;;;;;;0.85;0.47;;;;;;;12.61;100.00;96446.19;5093369;28;20027;-83
2023/04/25 02:31:18;;;;;;;0.17;0.15;;;;;;;12.54;100.00;96428.94;5088813;28;20419;-83
2023/04/25 02:33:44;;;;;;;0.10;0.10;;;;;;;12.49;100.00;96426.63;5096506;27;20031;-83
2023/04/25 02:36:09;;;;;;;0.25;0.25;;;;;;;12.52;100.00;96407.59;5096666;28;20055;-83
2023/04/25 02:38:35;;;;;;;0.88;0.70;;;;;;;12.58;100.00;96416.94;5087710;28;20055;-83
2023/04/25 02:41:01;;;;;;;0.50;0.50;;;;;;;12.54;100.00;96422.72;5079668;28;20406;-83
2023/04/25 02:43:26;;;;;;;0.20;0.20;;;;;;;12.44;100.00;96436.94;5104804;27;20030;-83
2023/04/25 02:45:52;;;;;;;0.20;0.20;;;;;;;12.42;100.00;96452.31;5096314;28;20478;-83
2023/04/25 02:48:17;;;;;;;0.40;0.20;;;;;;;12.32;100.00;96470.16;5082008;28;20019;-83
2023/04/25 02:50:43;;;;;;;0.40;0.40;;;;;;;12.17;100.00;96444.69;5075733;28;20052;-84
2023/04/25 02:53:09;;;;;;;1.98;1.35;;;;;;;12.12;100.00;96452.25;5076564;28;20023;-83
2023/04/25 02:55:34;;;;;;;0.98;0.55;;;;;;;12.10;100.00;96461.41;5076840;28;20060;-83
2023/04/25 02:58:00;;;;;;;0.25;0.22;;;;;;;11.95;100.00;96456.38;5076092;28;20051;-82
2023/04/25 03:00:25;;;;;;;2.90;1.10;;;;;;;11.91;100.00;96465.66;5076785;28;20092;-82
2023/04/25 03:02:51;;;;;;;0.85;0.43;;;;;;;11.77;100.00;96457.09;5093409;28;20029;-82
2023/04/25 03:05:17;;;;;;;0.20;0.20;;;;;;;11.90;100.00;96461.25;5076744;28;20034;-82
2023/04/25 03:07:43;;;;;;;0.10;0.10;;;;;;;11.89;100.00;96445.34;5076982;28;20206;-82
2023/04/25 03:10:10;;;;;;;0.93;0.73;;;;;;;11.87;100.00;96447.31;5092988;28;20031;-84
2023/04/25 03:12:35;;;;;;;0.20;0.20;;;;;;;11.77;100.00;96452.59;5093182;28;20063;-82
2023/04/25 03:15:01;;;;;;;0.10;0.10;;;;;;;11.70;100.00;96455.91;5076094;28;20069;-82
2023/04/25 03:17:26;;;;;;;0.13;0.13;;;;;;;11.61;100.00;96462.00;5075968;28;20092;-83
2023/04/25 03:19:52;;;;;;;1.35;0.85;;;;;;;11.56;100.00;96481.13;5075745;28;20485;-82
2023/04/25 03:22:18;;;;;;;0.32;0.32;;;;;;;11.44;100.00;96469.59;5077485;28;20093;-83
2023/04/25 03:24:43;;;;;;;0.30;0.30;;;;;;;11.43;100.00;96481.28;5079114;28;20035;-82
2023/04/25 03:27:09;;;;;;;0.25;0.15;;;;;;;11.41;100.00;96498.47;5079785;28;20317;-83
2023/04/25 03:29:34;;;;;;;4.70;1.92;;;;;;;11.38;100.00;96504.91;5096688;28;20038;-83
2023/04/25 03:32:00;;;;;;;2.85;2.55;;;;;;;11.32;100.00;96505.41;5079697;28;20043;-83
2023/04/25 03:34:25;;;;;;;3.95;2.58;;;;;;;11.29;100.00;96513.69;5079065;28;20027;-73
2023/04/25 03:36:51;;;;;;;13.70;1.63;;;;;;;11.29;100.00;96516.34;5114389;28;20072;-73
2023/04/25 03:39:16;;;;;;;1.45;0.85;;;;;;;11.20;100.00;96505.53;5095767;28;20475;-75
2023/04/25 03:41:42;;;;;;;0.95;0.45;;;;;;;11.24;100.00;96509.69;5114147;28;20042;-73
2023/04/25 03:44:07;;;;;;;0.68;0.43;;;;;;;11.24;100.00;96510.53;5095675;28;20118;-73
2023/04/25 03:46:33;;;;;;;0.68;0.65;;;;;;;11.25;100.00;96528.31;5095752;28;20028;-74
2023/04/25 03:48:59;;;;;;;1.40;0.93;;;;;;;11.19;100.00;96535.97;5078916;28;20031;-73
2023/04/25 03:51:25;;;;;;;0.32;0.20;;;;;;;11.26;100.00;96524.63;5111445;27;20091;-74
2023/04/25 03:53:51;;;;;;;0.50;0.50;;;;;;;11.30;100.00;96531.47;5116260;27;20482;-73
2023/04/25 03:56:17;;;;;;;1.60;0.98;;;;;;;11.32;100.00;96520.63;5098789;27;20034;-73
2023/04/25 03:58:42;;;;;;;2.90;1.05;;;;;;;11.40;100.00;96524.38;5115904;27;20417;-74
2023/04/25 04:01:08;;;;;;;1.45;0.90;;;;;;;11.39;100.00;96536.06;5115976;27;20031;-76
2023/04/25 04:03:37;;;;;;;0.93;0.68;;;;;;;11.38;100.00;96542.38;5134619;27;20027;-76
2023/04/25 04:06:06;;;;;;;1.55;0.95;;;;;;;11.52;100.00;96543.09;5116781;27;20423;-75
2023/04/25 04:08:32;;;;;;;3.47;0.75;;;;;;;11.92;100.00;96544.22;5115672;27;20033;-74
2023/04/25 04:10:58;;;;;;;0.57;0.50;;;;;;;11.94;100.00;96523.50;5115986;27;20031;-74
2023/04/25 04:13:26;;;;;;;0.63;0.35;;;;;;;12.03;100.00;96508.50;5115814;27;20355;-72
2023/04/25 04:15:52;;;;;;;0.30;0.30;;;;;;;11.92;100.00;96498.66;5116006;27;20123;-73
2023/04/25 04:18:17;;;;;;;3.83;1.30;;;;;;;11.80;100.00;96499.69;5115524;27;20098;-79
2023/04/25 04:20:43;;;;;;;0.43;0.35;;;;;;;11.82;100.00;96495.03;5098787;27;20031;-77
2023/04/25 04:23:08;;;;;;;0.93;0.75;;;;;;;12.17;100.00;96519.75;5115904;27;20106;-78
2023/04/25 04:25:34;;;;;;;0.52;0.40;;;;;;;12.44;100.00;96503.13;5115558;27;20039;-76
2023/04/25 04:28:00;;;;;;;2.15;1.40;;;;;;;12.38;100.00;96483.06;5098677;27;20023;-78
2023/04/25 04:30:29;;;;;;;3.58;0.95;;;;;;;12.30;100.00;96487.38;5117921;27;20030;-81
2023/04/25 04:32:55;;;;;;;0.50;0.50;;;;;;;12.21;100.00;96498.88;5095186;27;20039;-75
2023/04/25 04:35:22;;;;;;;2.08;1.00;;;;;;;12.22;100.00;96506.78;5095479;27;20113;-76
2023/04/25 04:37:47;;;;;;;1.38;0.90;;;;;;;12.25;100.00;96511.88;5112452;27;20494;-75
2023/04/25 04:40:17;;;;;;;1.20;0.73;;;;;;;12.24;100.00;96531.63;5112541;27;20038;-75
2023/04/25 04:42:45;;;;;;;0.40;0.30;;;;;;;12.41;100.00;96525.69;5112876;27;20038;-78
2023/04/25 04:45:11;;;;;;;1.75;0.70;;;;;;;12.63;100.00;96537.25;5112511;27;20029;-76
2023/04/25 04:47:36;;;;;;;0.55;0.55;;;;;;;12.83;100.00;96517.56;5112534;27;20402;-76
2023/04/25 04:50:03;;;;;;;0.85;0.85;;;;;;;13.05;100.00;96512.03;5110396;28;20051;-75
2023/04/25 04:52:29;;;;;;;0.50;0.50;;;;;;;13.16;100.00;96492.34;5093808;28;20035;-75
2023/04/25 04:54:55;;;;;;;0.80;0.75;;;;;;;13.56;100.00;96498.50;5094643;28;20423;-75
2023/04/25 04:57:21;;;;;;;0.17;0.08;;;;;;;13.88;100.00;96491.03;5094658;28;20077;-75
2023/04/25 04:59:46;;;;;;;0.98;0.82;;;;;;;14.10;100.00;96479.13;5093917;28;20019;-75
2023/04/25 05:02:12;;;;;;;0.63;0.52;;;;;;;14.27;100.00;96478.44;5077538;28;20118;-74
2023/04/25 05:04:37;;;;;;;2.55;0.60;;;;;;;14.31;100.00;96474.44;5103478;28;20046;-75
2023/04/25 05:07:03;;;;;;;1.30;1.08;;;;;;;14.41;100.00;96461.84;5112678;28;20023;-74
2023/04/25 05:09:28;;;;;;;0.43;0.43;;;;;;;14.60;100.00;96451.03;5077196;28;20031;-74
2023/04/25 05:11:54;;;;;;;2.17;0.73;;;;;;;14.79;100.00;96451.97;5077428;28;20131;-75
2023/04/25 05:14:21;;;;;;;0.38;0.35;;;;;;;14.80;100.00;96446.44;5112574;28;20035;-74
2023/04/25 05:16:47;;;;;;;2.63;0.73;;;;;;;14.95;100.00;96442.25;5077172;28;20027;-75
2023/04/25 05:19:12;;;;;;;1.40;0.63;;;;;;;14.90;100.00;96443.69;5090867;28;20051;-74
2023/04/25 05:21:38;;;;;;;0.10;0.10;;;;;;;15.05;100.00;96455.66;5094024;28;20039;-74
2023/04/25 05:24:04;;;;;;;0.40;0.40;;;;;;;15.31;100.00;96448.59;5112273;28;20031;-74
2023/04/25 05:26:30;;;;;;;0.70;0.25;;;;;;;15.53;100.00;96445.50;5106295;28;20081;-75
2023/04/25 05:28:58;;;;;;;0.17;0.17;;;;;;;15.80;100.00;96446.44;5094382;28;20493;-75
2023/04/25 05:31:24;;;;;;;1.65;0.30;;;;;;;16.33;100.00;96436.44;5112249;28;20487;-74
2023/04/25 05:33:49;;;;;;;22.38;0.80;;;;;;;16.63;100.00;96430.59;5112180;28;20055;-74
2023/04/25 05:36:15;;;;;;;0.65;0.50;;;;;;;16.57;100.00;96425.84;5094071;28;20055;-75
2023/04/25 05:38:40;;;;;;;0.10;0.10;;;;;;;16.17;100.00;96439.88;5111789;28;20479;-75
2023/04/25 05:41:07;;;;;;;0.52;0.52;;;;;;;16.08;100.00;96438.09;5093857;28;20024;-76
2023/04/25 05:43:32;;;;;;;0.15;0.15;;;;;;;16.01;100.00;96438.88;5093934;28;20035;-75
2023/04/25 05:45:58;;;;;;;0.77;0.77;;;;;;;16.14;100.00;96439.31;5076317;28;20395;-75
2023/04/25 05:48:23;;;;;;;0.90;0.75;;;;;;;15.62;100.00;96433.81;5076991;28;20035;-75
2023/04/25 05:50:49;;;;;;;1.20;0.40;;;;;;;15.57;100.00;96448.72;5087199;27;20051;-75
2023/04/25 05:53:14;;;;;;;0.32;0.32;;;;;;;15.37;100.00;96431.81;5113990;27;20500;-75
2023/04/25 05:55:40;;;;;;;0.45;0.30;;;;;;;15.24;100.00;96444.81;5113840;27;20344;-75
2023/04/25 05:58:08;;;;;;;0.22;0.22;;;;;;;15.37;100.00;96429.13;5132434;27;20023;-74
2023/04/25 06:00:34;;;;;;;1.35;0.85;;;;;;;15.39;100.00;96437.03;5114295;27;20058;-74
2023/04/25 06:02:59;;;;;;;4.18;0.98;;;;;;;15.58;100.00;96437.81;5113589;27;20115;-74
2023/04/25 06:05:25;;;;;;;3.13;1.45;;;;;;;15.73;100.00;96447.06;5113642;27;20023;-73
2023/04/25 06:07:51;;;;;;;1.85;1.63;;;;;;;15.93;100.00;96436.13;5113426;27;20080;-74
2023/04/25 06:10:16;;;;;;;1.50;0.93;;;;;;;16.12;100.00;96444.88;5113691;27;20019;-75
2023/04/25 06:12:42;;;;;;;0.20;0.20;;;;;;;16.43;100.00;96447.13;5113639;27;20035;-75
2023/04/25 06:15:07;;;;;;;0.35;0.30;;;;;;;16.57;100.00;96428.53;5113787;27;20459;-75
2023/04/25 06:17:33;;;;;;;0.10;0.10;;;;;;;16.62;100.00;96441.56;5113576;27;20352;-75
2023/04/25 06:19:59;;;;;;;0.17;0.17;;;;;;;16.53;100.00;96446.03;5096515;27;20031;-75
2023/04/25 06:22:24;;;;;;;0.60;0.40;;;;;;;16.46;100.00;96454.91;5113603;27;20023;-74
2023/04/25 06:24:50;;;;;;;0.57;0.55;;;;;;;16.44;100.00;96446.97;5096316;27;20027;-73
2023/04/25 06:27:15;;;;;;;2.40;0.98;;;;;;;16.64;100.00;96445.78;5096572;27;20448;-74
2023/04/25 06:29:41;;;;;;;1.02;0.55;;;;;;;16.92;100.00;96437.53;5113693;28;20110;-75
2023/04/25 06:32:06;;;;;;;1.90;0.82;;;;;;;17.16;100.00;96429.53;5113073;27;20497;-75
2023/04/25 06:34:32;;;;;;;0.90;0.90;;;;;;;17.51;100.00;96437.41;5113239;28;20058;-75
2023/04/25 06:36:57;;;;;;;0.80;0.65;;;;;;;17.47;100.00;96424.38;5095909;28;20031;-74
2023/04/25 06:39:24;;;;;;;2.30;1.48;;;;;;;17.54;100.00;96420.84;5096782;27;20035;-74
2023/04/25 06:41:50;;;;;;;2.30;0.95;;;;;;;17.63;100.00;96428.00;5096275;28;20033;-75
2023/04/25 06:44:15;;;;;;;5.45;2.75;;;;;;;17.70;100.00;96420.91;5096173;28;20110;-76
2023/04/25 06:46:41;;;;;;;0.30;0.30;;;;;;;17.72;100.00;96407.19;5131790;28;20416;-73
2023/04/25 06:49:06;;;;;;;12.57;3.33;;;;;;;17.79;100.00;96422.63;5096059;28;20023;-75
2023/04/25 06:51:32;;;;;;;3.35;2.35;;;;;;;17.91;100.00;96430.41;5079103;28;20051;-76
2023/04/25 06:53:57;;;;;;;31.77;3.20;;;;;;;17.68;100.00;96436.47;5075517;28;20031;-75
2023/04/25 06:56:23;;;;;;;0.77;0.77;;;;;;;17.79;100.00;96448.81;5077945;28;20058;-75
2023/04/25 06:58:49;;;;;;;1.35;1.25;;;;;;;17.89;100.00;96444.09;5079897;28;20059;-75
2023/04/25 07:01:15;;;;;;;4.57;1.90;;;;;;;18.07;100.00;96447.50;5115196;28;20027;-75
2023/04/25 07:03:40;;;;;;;1.50;1.13;;;;;;;18.25;100.00;96442.78;5096874;28;20027;-75
2023/04/25 07:06:09;;;;;;;2.40;1.60;;;;;;;18.48;99.64;96426.69;5079455;28;20077;-74
2023/04/25 07:08:34;;;;;;;0.80;0.70;;;;;;;18.89;100.00;96425.59;5079838;28;20407;-74
2023/04/25 07:11:00;;;;;;;6.63;2.10;;;;;;;19.55;90.32;96407.22;5096627;28;20031;-75
2023/04/25 07:13:25;;;;;;;2.45;1.92;;;;;;;21.46;79.09;96421.13;5114956;28;20023;-74
2023/04/25 07:15:51;;;;;;;0.90;0.60;;;;;;;22.44;67.03;96393.25;5096704;28;20028;-73
2023/04/25 07:18:16;;;;;;;3.33;1.48;;;;;;;22.74;58.66;96370.25;5114492;28;20395;-74
2023/04/25 07:20:42;;;;;;;0.00;0.00;;;;;;;22.36;60.22;96372.47;5114782;28;20490;-74
2023/04/25 07:23:07;;;;;;;0.40;0.40;;;;;;;22.20;59.91;96370.00;5079288;28;20028;-74
2023/04/25 07:25:36;;;;;;;1.80;0.88;;;;;;;22.47;56.40;96371.06;5096224;28;20101;-74
2023/04/25 07:28:02;;;;;;;1.00;0.88;;;;;;;23.48;54.67;96375.94;5095989;28;20157;-75
2023/04/25 07:30:27;;;;;;;1.85;1.60;;;;;;;24.36;51.41;96366.72;5096645;28;20039;-74
2023/04/25 07:32:53;;;;;;;3.75;0.68;;;;;;;24.84;50.85;96376.41;5114744;28;20035;-74
2023/04/25 07:35:19;;;;;;;0.65;0.52;;;;;;;24.75;50.41;96363.97;5095953;28;20384;-75
2023/04/25 07:37:44;;;;;;;0.22;0.20;;;;;;;23.87;51.52;96359.69;5079265;28;20035;-74
2023/04/25 07:40:10;;;;;;;0.70;0.70;;;;;;;23.13;54.20;96367.75;5078897;28;20031;-75
2023/04/25 07:42:35;;;;;;;0.52;0.52;;;;;;;22.43;54.75;96362.44;5079271;28;20035;-75
2023/04/25 07:45:02;;;;;;;0.20;0.10;;;;;;;21.65;62.83;96380.72;5095904;28;20479;-75
2023/04/25 07:47:28;;;;;;;0.17;0.17;;;;;;;20.20;64.16;96366.91;5096424;28;20024;-75
2023/04/25 07:49:54;;;;;;;0.20;0.20;;;;;;;19.68;69.55;96372.22;5098692;27;20097;-74
2023/04/25 07:52:19;;;;;;;0.10;0.10;;;;;;;19.52;72.85;96381.31;5096368;27;20031;-74
2023/04/25 07:54:45;;;;;;;0.00;0.00;;;;;;;19.43;77.55;96390.53;5097681;27;20042;-75
2023/04/25 07:57:10;;;;;;;0.95;0.40;;;;;;;19.47;81.04;96408.13;5134136;27;20035;-74
2023/04/25 07:59:36;;;;;;;1.00;0.30;;;;;;;19.37;73.61;96392.06;5099166;27;20035;-74
2023/04/25 08:02:02;;;;;;;0.30;0.30;;;;;;;19.09;74.66;96392.69;5134683;27;20031;-75
2023/04/25 08:04:27;;;;;;;0.20;0.13;;;;;;;19.07;77.19;96394.72;5098787;27;20046;-75
2023/04/25 08:06:53;;;;;;;0.50;0.20;;;;;;;19.01;75.71;96398.16;5115527;27;20038;-73
2023/04/25 08:09:19;;;;;;;0.20;0.20;;;;;;;18.68;77.08;96395.53;5098166;27;20031;-75
2023/04/25 08:11:45;;;;;;;1.25;1.15;;;;;;;18.66;75.26;96403.00;5098600;27;20034;-74
2023/04/25 08:14:11;;;;;;;4.75;2.63;;;;;;;18.92;71.27;96392.72;5098641;27;20379;-74
2023/04/25 08:16:37;;;;;;;4.50;2.72;;;;;;;19.15;70.16;96389.28;5115827;27;20031;-74
2023/04/25 08:19:03;;;;;;;3.72;2.78;;;;;;;19.32;76.92;96412.56;5115656;27;20027;-74
2023/04/25 08:21:28;;;;;;;8.10;3.20;;;;;;;19.37;76.88;96405.59;5115388;27;20087;-74
2023/04/25 08:23:54;;;;;;;15.25;3.35;;;;;;;19.29;71.38;96383.94;5115525;27;20114;-74
2023/04/25 08:26:20;;;;;;;6.50;2.70;;;;;;;19.42;65.92;96373.41;5115596;27;20027;-74
2023/04/25 08:28:46;;;;;;;7.88;3.22;;;;;;;19.63;67.98;96386.31;5098534;27;20023;-74
2023/04/25 08:31:12;;;;;;;3.75;3.08;;;;;;;19.31;70.47;96376.50;5106696;28;20023;-75
2023/04/25 08:33:37;;;;;;;4.90;3.45;;;;;;;19.24;77.33;96401.75;5095038;28;20371;-74
2023/04/25 08:36:03;;;;;;;8.60;3.78;;;;;;;19.29;75.33;96400.22;5095006;28;20032;-74
2023/04/25 08:38:28;;;;;;;9.88;3.80;;;;;;;19.08;76.19;96399.13;5111770;27;20034;-74
2023/04/25 08:40:55;;;;;;;7.72;3.67;;;;;;;18.90;80.17;96407.50;5113410;27;20031;-73
2023/04/25 08:43:21;;;;;;;6.80;3.63;;;;;;;18.57;80.08;96408.59;5134048;27;20525;-74
2023/04/25 08:45:47;;;;;;;17.75;4.70;;;;;;;18.52;81.94;96411.81;5097941;27;20023;-73
2023/04/25 08:48:14;;;;;;;6.03;2.92;;;;;;;18.21;78.43;96384.56;5115240;27;20109;-74
2023/04/25 08:50:53;;;;;;;6.50;3.30;;;;;;;18.08;81.31;96403.19;5097784;27;20142;-74
2023/04/25 08:53:32;;;;;;;4.63;3.58;;;;;;;18.24;87.56;96422.13;5110241;28;20127;-75
2023/04/25 08:55:59;;;;;;;7.93;2.92;;;;;;;18.21;84.12;96411.63;5077582;28;20112;-74
2023/04/25 08:58:24;;;;;;;3.53;2.63;;;;;;;18.06;84.45;96415.19;5094458;27;20023;-75
2023/04/25 09:00:51;;;;;;;3.15;2.30;;;;;;;17.90;83.92;96409.78;5097651;27;20019;-74
2023/04/25 09:03:17;;;;;;;2.13;1.88;;;;;;;17.98;74.02;96396.25;5114870;27;20083;-74
2023/04/25 09:05:43;;;;;;;2.13;1.83;;;;;;;17.81;75.70;96390.81;5114919;27;20027;-73
2023/04/25 09:08:09;;;;;;;2.10;1.63;;;;;;;17.94;74.70;96384.06;5114690;27;20127;-74
2023/04/25 09:10:35;;;;;;;2.45;1.73;;;;;;;18.26;72.55;96384.91;5097126;28;20076;-74
2023/04/25 09:13:05;;;;;;;8.25;1.55;;;;;;;18.55;65.50;96378.13;5103843;28;20031;-74
2023/04/25 09:15:32;;;;;;;6.10;1.50;;;;;;;19.10;61.71;96373.53;5109979;27;20110;-74
2023/04/25 09:17:58;;;;;;;4.18;1.80;;;;;;;19.47;65.23;96381.81;5097347;27;20027;-74
2023/04/25 09:20:24;;;;;;;5.00;1.60;;;;;;;19.72;59.53;96368.13;5113575;27;20030;-74
2023/04/25 09:23:01;;;;;;;3.10;1.70;;;;;;;19.39;61.00;96356.59;5114618;27;20030;-73
2023/04/25 09:25:27;;;;;;;6.38;1.88;;;;;;;19.25;64.61;96360.94;5097452;27;20102;-73
2023/04/25 09:27:54;;;;;;;2.40;1.40;;;;;;;19.25;57.81;96343.81;5114230;27;20364;-75
2023/04/25 09:30:30;;;;;;;1.90;1.30;;;;;;;19.12;59.50;96348.97;5097497;27;20083;-75
2023/04/25 09:33:09;;;;;;;1.90;1.55;;;;;;;19.10;60.91;96351.00;5097162;27;20097;-74
2023/04/25 09:35:39;;;;;;;2.22;1.60;;;;;;;19.00;61.12;96358.50;5114287;27;20027;-74
2023/04/25 09:38:09;;;;;;;5.53;1.80;;;;;;;18.74;64.94;96340.66;5114136;27;20023;-75
2023/04/25 09:40:39;;;;;;;2.75;1.50;;;;;;;18.66;62.82;96340.69;5113944;27;20088;-74
2023/04/25 09:43:21;;;;;;;2.05;1.60;;;;;;;18.47;66.17;96332.06;5114036;27;20038;-75
2023/04/25 09:45:47;;;;;;;4.15;2.33;;;;;;;18.52;68.48;96354.94;5096925;27;20027;-74
2023/04/25 09:48:20;;;;;;;3.55;2.70;;;;;;;18.57;67.61;96349.84;5096786;27;20030;-76
2023/04/25 09:51:05;;;;;;;4.18;2.70;;;;;;;19.12;66.44;96371.50;5113945;27;20055;-74
2023/04/25 09:53:32;;;;;;;6.60;3.17;;;;;;;22.18;54.31;96403.94;5114234;27;20092;-75
2023/04/25 09:56:00;;;;;;;2.03;1.55;;;;;;;25.34;43.14;96394.00;5096632;27;20027;-76
2023/04/25 09:58:27;;;;;;;2.47;1.67;;;;;;;25.18;42.41;96332.34;5108776;28;20075;-75
2023/04/25 10:00:54;;;;;;;4.78;1.77;;;;;;;23.53;45.84;96313.41;5093434;28;20030;-74
2023/04/25 10:03:20;;;;;;;4.18;1.50;;;;;;;22.96;46.62;96306.41;5113167;27;20027;-74
2023/04/25 10:05:47;;;;;;;1.70;1.20;;;;;;;22.04;48.52;96307.63;5088562;28;20211;-74
2023/04/25 10:08:13;;;;;;;1.83;1.40;;;;;;;21.31;51.52;96307.91;5093018;28;20428;-74
2023/04/25 10:10:40;;;;;;;3.40;2.30;;;;;;;20.59;58.62;96320.50;5108289;27;20097;-74
2023/04/25 10:13:06;;;;;;;5.40;2.40;;;;;;;20.26;59.56;96312.72;5085880;28;20019;-74
2023/04/25 10:15:35;;;;;;;3.38;2.35;;;;;;;19.76;64.70;96324.16;5090349;27;20390;-74
2023/04/25 10:18:00;;;;;;;3.30;2.53;;;;;;;19.49;62.67;96311.16;5096283;27;20030;-75
2023/04/25 10:20:26;;;;;;;5.93;2.53;;;;;;;19.43;61.44;96314.56;5113654;27;20490;-75
2023/04/25 10:22:56;;;;;;;4.40;2.60;;;;;;;19.25;64.31;96314.84;5096585;27;20441;-75
2023/04/25 11:13:34;;;;;;;1.52;1.42;;;;;;;18.76;81.05;96316.94;5149837;27;20384;-73
2023/04/25 11:16:00;;;;;;;2.30;1.20;;;;;;;17.32;97.38;96353.88;5151102;27;20036;-74
2023/04/25 11:18:27;;;;;;;0.20;0.20;;;;;;;15.98;100.00;96404.97;5168802;27;20484;-74
2023/04/25 11:20:52;;;;;;;0.30;0.20;;;;;;;15.17;100.00;96439.16;5162915;27;20394;-74
2023/04/25 11:23:18;;;;;;;0.20;0.20;;;;;;;14.69;100.00;96416.16;5166367;27;20022;-75
2023/04/25 11:25:44;;;;;;;1.73;0.65;;;;;;;14.54;100.00;96423.88;5146962;27;20019;-74
2023/04/25 11:28:10;;;;;;;3.65;1.67;;;;;;;14.40;100.00;96416.25;5164847;27;20098;-74
2023/04/25 11:30:35;;;;;;;1.23;0.77;;;;;;;14.28;100.00;96422.75;5169830;27;20122;-73
2023/04/25 11:33:03;;;;;;;0.32;0.30;;;;;;;14.44;100.00;96434.66;5169863;27;20026;-74
2023/04/25 11:35:28;;;;;;;0.93;0.82;;;;;;;14.94;100.00;96454.03;5132004;27;20026;-74
2023/04/25 11:37:54;;;;;;;3.40;1.10;;;;;;;15.55;100.00;96453.44;5166531;27;20496;-74
2023/04/25 11:40:19;;;;;;;0.20;0.20;;;;;;;16.22;100.00;96450.16;5150520;27;20031;-75
2023/04/25 11:42:46;;;;;;;0.38;0.38;;;;;;;17.01;100.00;96436.56;5130351;27;20018;-74
2023/04/25 11:45:12;;;;;;;1.15;0.90;;;;;;;18.10;100.00;96435.50;5164434;27;20396;-74
2023/04/25 11:47:38;;;;;;;0.55;0.50;;;;;;;19.52;100.00;96427.44;5150962;27;20068;-74
2023/04/25 11:50:07;;;;;;;0.28;0.28;;;;;;;19.96;100.00;96424.97;5131281;27;20070;-74
2023/04/25 11:52:46;;;;;;;0.20;0.20;;;;;;;19.58;91.61;96386.03;5166869;27;20074;-74
2023/04/25 11:55:16;;;;;;;0.32;0.32;;;;;;;19.43;100.00;96409.50;5143008;27;20034;-74
2023/04/25 11:57:43;;;;;;;18.45;8.43;;;;;;;19.61;100.00;96395.66;5147335;27;20374;-74
2023/04/25 12:00:13;;;;;;;3.15;1.27;;;;;;;19.71;90.22;96367.28;5150220;27;20030;-74
2023/04/25 12:02:47;;;;;;;0.98;0.98;;;;;;;19.57;85.73;96365.31;5157815;27;20148;-74
2023/04/25 12:05:13;;;;;;;0.20;0.20;;;;;;;19.85;83.19;96357.50;5150485;27;20090;-76
2023/04/25 12:07:40;;;;;;;1.08;0.47;;;;;;;21.28;75.26;96349.94;5167678;27;20445;-74
2023/04/25 12:10:16;;;;;;;0.20;0.20;;;;;;;24.44;61.00;96344.63;5131434;27;20110;-75
2023/04/25 12:12:43;;;;;;;0.47;0.30;;;;;;;25.80;52.55;96322.63;5146142;27;20047;-76